sensor_id;sensor_type;location;lat;lon;timestamp;pressure;altitude;pressure_sealevel;temperature;humidity
47054;BME280;32811;52.382;5.270;2023-02-18T00:00:27;102212.66;;;8.22;100.00
47054;BME280;32811;52.382;5.270;2023-02-18T00:02:53;102201.31;;;8.17;100.00
47054;BME280;32811;52.382;5.270;2023-02-18T00:05:23;102210.91;;;8.21;100.00
47054;BME280;32811;52.382;5.270;2023-02-18T00:07:50;102211.75;;;8.20;100.00
47054;BME280;32811;52.382;5.270;2023-02-18T00:10:16;102214.50;;;8.26;100.00
47054;BME280;32811;52.382;5.270;2023-02-18T00:12:43;102211.13;;;8.27;100.00
47054;BME280;32811;52.382;5.270;2023-02-18T00:15:10;102213.59;;;8.24;100.00
47054;BME280;32811;52.382;5.270;2023-02-18T00:17:36;102217.84;;;8.23;100.00
47054;BME280;32811;52.382;5.270;2023-02-18T00:20:05;102219.63;;;8.24;100.00
47054;BME280;32811;52.382;5.270;2023-02-18T00:22:32;102220.50;;;8.25;100.00
47054;BME280;32811;52.382;5.270;2023-02-18T00:24:58;102214.34;;;8.21;100.00
47054;BME280;32811;52.382;5.270;2023-02-18T00:27:25;102214.34;;;8.21;100.00
47054;BME280;32811;52.382;5.270;2023-02-18T00:29:52;102211.94;;;8.26;100.00
47054;BME280;32811;52.382;5.270;2023-02-18T00:32:18;102214.56;;;8.27;100.00
47054;BME280;32811;52.382;5.270;2023-02-18T00:34:45;102212.88;;;8.28;100.00
47054;BME280;32811;52.382;5.270;2023-02-18T00:37:11;102201.84;;;8.30;100.00
47054;BME280;32811;52.382;5.270;2023-02-18T00:39:38;102196.56;;;8.27;100.00
47054;BME280;32811;52.382;5.270;2023-02-18T00:42:04;102181.84;;;8.23;100.00
47054;BME280;32811;52.382;5.270;2023-02-18T00:44:31;102186.22;;;8.26;100.00
47054;BME280;32811;52.382;5.270;2023-02-18T00:46:58;102184.56;;;8.28;100.00
47054;BME280;32811;52.382;5.270;2023-02-18T00:49:24;102183.84;;;8.30;100.00
47054;BME280;32811;52.382;5.270;2023-02-18T00:51:51;102182.22;;;8.34;100.00
47054;BME280;32811;52.382;5.270;2023-02-18T00:54:17;102176.06;;;8.29;100.00
47054;BME280;32811;52.382;5.270;2023-02-18T00:56:44;102169.25;;;8.31;100.00
47054;BME280;32811;52.382;5.270;2023-02-18T00:59:10;102177.91;;;8.33;100.00
47054;BME280;32811;52.382;5.270;2023-02-18T01:01:37;102189.00;;;8.32;100.00
47054;BME280;32811;52.382;5.270;2023-02-18T01:04:04;102176.28;;;8.35;100.00
47054;BME280;32811;52.382;5.270;2023-02-18T01:06:30;102179.75;;;8.37;100.00
47054;BME280;32811;52.382;5.270;2023-02-18T01:08:57;102169.34;;;8.34;100.00
47054;BME280;32811;52.382;5.270;2023-02-18T01:11:24;102172.09;;;8.39;100.00
47054;BME280;32811;52.382;5.270;2023-02-18T01:13:50;102171.13;;;8.35;100.00
47054;BME280;32811;52.382;5.270;2023-02-18T01:16:17;102181.50;;;8.38;100.00
47054;BME280;32811;52.382;5.270;2023-02-18T01:18:44;102160.78;;;8.34;100.00
47054;BME280;32811;52.382;5.270;2023-02-18T01:21:11;102167.72;;;8.36;100.00
47054;BME280;32811;52.382;5.270;2023-02-18T01:23:39;102162.66;;;8.39;100.00
47054;BME280;32811;52.382;5.270;2023-02-18T01:26:06;102158.41;;;8.40;100.00
47054;BME280;32811;52.382;5.270;2023-02-18T01:28:34;102155.84;;;8.40;100.00
47054;BME280;32811;52.382;5.270;2023-02-18T01:31:10;102171.28;;;8.40;100.00
47054;BME280;32811;52.382;5.270;2023-02-18T01:33:37;102163.69;;;8.43;100.00
47054;BME280;32811;52.382;5.270;2023-02-18T01:36:04;102165.41;;;8.42;100.00
47054;BME280;32811;52.382;5.270;2023-02-18T01:38:32;102160.94;;;8.38;100.00
47054;BME280;32811;52.382;5.270;2023-02-18T01:40:59;102162.16;;;8.48;100.00
47054;BME280;32811;52.382;5.270;2023-02-18T01:43:25;102144.63;;;8.38;100.00
47054;BME280;32811;52.382;5.270;2023-02-18T01:48:57;102137.84;;;8.40;100.00
47054;BME280;32811;52.382;5.270;2023-02-18T01:51:29;102133.34;;;8.34;100.00
47054;BME280;32811;52.382;5.270;2023-02-18T01:59:39;102116.97;;;8.32;100.00
47054;BME280;32811;52.382;5.270;2023-02-18T02:02:10;102116.25;;;8.36;100.00
47054;BME280;32811;52.382;5.270;2023-02-18T02:04:38;102104.19;;;8.34;100.00
47054;BME280;32811;52.382;5.270;2023-02-18T02:07:05;102099.13;;;8.37;100.00
47054;BME280;32811;52.382;5.270;2023-02-18T02:09:33;102085.19;;;8.30;100.00
47054;BME280;32811;52.382;5.270;2023-02-18T02:15:07;102074.25;;;8.37;100.00
47054;BME280;32811;52.382;5.270;2023-02-18T02:23:14;102074.25;;;8.36;100.00
47054;BME280;32811;52.382;5.270;2023-02-18T02:26:20;102070.78;;;8.35;100.00
47054;BME280;32811;52.382;5.270;2023-02-18T02:48:15;102009.06;;;8.35;100.00
47054;BME280;32811;52.382;5.270;2023-02-18T02:51:14;102005.50;;;8.31;100.00
47054;BME280;32811;52.382;5.270;2023-02-18T02:53:44;102003.75;;;8.30;100.00
47054;BME280;32811;52.382;5.270;2023-02-18T02:56:18;102003.00;;;8.35;100.00
47054;BME280;32811;52.382;5.270;2023-02-18T02:58:59;101997.72;;;8.30;100.00
47054;BME280;32811;52.382;5.270;2023-02-18T03:23:52;101966.97;;;8.33;100.00
47054;BME280;32811;52.382;5.270;2023-02-18T03:26:18;101949.78;;;8.32;100.00
47054;BME280;32811;52.382;5.270;2023-02-18T03:28:48;101931.88;;;8.35;100.00
47054;BME280;32811;52.382;5.270;2023-02-18T03:31:19;101942.19;;;8.37;100.00
47054;BME280;32811;52.382;5.270;2023-02-18T03:34:04;101928.47;;;8.36;100.00
47054;BME280;32811;52.382;5.270;2023-02-18T03:36:33;101919.97;;;8.39;100.00
47054;BME280;32811;52.382;5.270;2023-02-18T03:39:07;101896.47;;;8.28;100.00
47054;BME280;32811;52.382;5.270;2023-02-18T03:41:35;101919.09;;;8.38;100.00
47054;BME280;32811;52.382;5.270;2023-02-18T03:44:06;101899.03;;;8.26;100.00
47054;BME280;32811;52.382;5.270;2023-02-18T03:46:33;101896.91;;;8.40;100.00
47054;BME280;32811;52.382;5.270;2023-02-18T03:49:01;101890.88;;;8.40;100.00
47054;BME280;32811;52.382;5.270;2023-02-18T03:51:27;101857.75;;;8.23;100.00
47054;BME280;32811;52.382;5.270;2023-02-18T03:53:54;101891.66;;;8.39;100.00
47054;BME280;32811;52.382;5.270;2023-02-18T03:56:21;101876.41;;;8.43;100.00
47054;BME280;32811;52.382;5.270;2023-02-18T03:58:48;101866.13;;;8.43;100.00
47054;BME280;32811;52.382;5.270;2023-02-18T04:01:14;101876.41;;;8.43;100.00
47054;BME280;32811;52.382;5.270;2023-02-18T04:03:41;101864.38;;;8.42;100.00
47054;BME280;32811;52.382;5.270;2023-02-18T04:06:08;101873.97;;;8.48;100.00
47054;BME280;32811;52.382;5.270;2023-02-18T04:08:35;101867.03;;;8.45;100.00
47054;BME280;32811;52.382;5.270;2023-02-18T04:11:03;101860.28;;;8.49;100.00
47054;BME280;32811;52.382;5.270;2023-02-18T04:13:30;101872.56;;;8.58;100.00
47054;BME280;32811;52.382;5.270;2023-02-18T04:15:57;101862.03;;;8.50;100.00
47054;BME280;32811;52.382;5.270;2023-02-18T04:18:24;101857.78;;;8.52;100.00
47054;BME280;32811;52.382;5.270;2023-02-18T04:20:52;101850.03;;;8.50;100.00
47054;BME280;32811;52.382;5.270;2023-02-18T04:23:22;101859.75;;;8.61;100.00
47054;BME280;32811;52.382;5.270;2023-02-18T04:25:50;101845.66;;;8.46;100.00
47054;BME280;32811;52.382;5.270;2023-02-18T04:28:17;101828.31;;;8.41;100.00
47054;BME280;32811;52.382;5.270;2023-02-18T04:30:50;101816.25;;;8.40;100.00
47054;BME280;32811;52.382;5.270;2023-02-18T04:33:17;101824.94;;;8.43;100.00
47054;BME280;32811;52.382;5.270;2023-02-18T04:35:50;101814.59;;;8.40;100.00
47054;BME280;32811;52.382;5.270;2023-02-18T04:38:17;101835.50;;;8.52;100.00
47054;BME280;32811;52.382;5.270;2023-02-18T04:40:46;101785.94;;;8.29;100.00
47054;BME280;32811;52.382;5.270;2023-02-18T04:43:13;101825.22;;;8.52;100.00
47054;BME280;32811;52.382;5.270;2023-02-18T04:45:42;101832.06;;;8.52;100.00
47054;BME280;32811;52.382;5.270;2023-02-18T04:48:20;101825.31;;;8.56;100.00
47054;BME280;32811;52.382;5.270;2023-02-18T04:50:56;101817.53;;;8.54;100.00
47054;BME280;32811;52.382;5.270;2023-02-18T04:53:25;101787.91;;;8.38;100.00
47054;BME280;32811;52.382;5.270;2023-02-18T04:55:53;101810.75;;;8.56;100.00
47054;BME280;32811;52.382;5.270;2023-02-18T04:58:26;101785.56;;;8.44;100.00
47054;BME280;32811;52.382;5.270;2023-02-18T05:00:53;101813.31;;;8.56;100.00
47054;BME280;32811;52.382;5.270;2023-02-18T05:03:58;101788.13;;;8.44;100.00
47054;BME280;32811;52.382;5.270;2023-02-18T05:06:25;101787.16;;;8.41;100.00
47054;BME280;32811;52.382;5.270;2023-02-18T05:08:52;101809.94;;;8.59;100.00
47054;BME280;32811;52.382;5.270;2023-02-18T05:11:31;101816.88;;;8.61;100.00
47054;BME280;32811;52.382;5.270;2023-02-18T05:14:05;101781.34;;;8.48;100.00
47054;BME280;32811;52.382;5.270;2023-02-18T05:16:34;101767.00;;;8.56;100.00
47054;BME280;32811;52.382;5.270;2023-02-18T05:19:05;101790.41;;;8.65;100.00
47054;BME280;32811;52.382;5.270;2023-02-18T05:21:35;101788.06;;;8.73;100.00
47054;BME280;32811;52.382;5.270;2023-02-18T05:24:09;101763.63;;;8.59;100.00
47054;BME280;32811;52.382;5.270;2023-02-18T05:26:38;101785.69;;;8.81;100.00
47054;BME280;32811;52.382;5.270;2023-02-18T05:29:21;101743.84;;;8.56;100.00
47054;BME280;32811;52.382;5.270;2023-02-18T05:31:51;101745.97;;;8.71;100.00
47054;BME280;32811;52.382;5.270;2023-02-18T05:34:26;101764.41;;;8.88;100.00
47054;BME280;32811;52.382;5.270;2023-02-18T05:36:58;101755.03;;;8.90;100.00
47054;BME280;32811;52.382;5.270;2023-02-18T05:39:33;101760.28;;;8.93;100.00
47054;BME280;32811;52.382;5.270;2023-02-18T05:42:03;101756.06;;;8.97;100.00
47054;BME280;32811;52.382;5.270;2023-02-18T05:44:30;101771.00;;;9.10;100.00
47054;BME280;32811;52.382;5.270;2023-02-18T05:47:05;101763.09;;;9.04;100.00
47054;BME280;32811;52.382;5.270;2023-02-18T05:49:38;101742.28;;;8.94;100.00
47054;BME280;32811;52.382;5.270;2023-02-18T05:52:05;101759.94;;;9.14;100.00
47054;BME280;32811;52.382;5.270;2023-02-18T05:54:33;101760.00;;;9.17;100.00
47054;BME280;32811;52.382;5.270;2023-02-18T05:57:01;101760.00;;;9.17;100.00
47054;BME280;32811;52.382;5.270;2023-02-18T05:59:28;101760.91;;;9.18;100.00
47054;BME280;32811;52.382;5.270;2023-02-18T06:01:55;101761.75;;;9.18;100.00
47054;BME280;32811;52.382;5.270;2023-02-18T06:04:21;101758.38;;;9.21;100.00
47054;BME280;32811;52.382;5.270;2023-02-18T06:06:48;101768.63;;;9.19;100.00
47054;BME280;32811;52.382;5.270;2023-02-18T06:09:15;101771.91;;;9.12;100.00
47054;BME280;32811;52.382;5.270;2023-02-18T06:11:41;101768.47;;;9.13;100.00
47054;BME280;32811;52.382;5.270;2023-02-18T06:14:08;101766.94;;;9.20;100.00
47054;BME280;32811;52.382;5.270;2023-02-18T06:16:35;101758.19;;;9.13;100.00
47054;BME280;32811;52.382;5.270;2023-02-18T06:19:01;101754.72;;;9.11;100.00
47054;BME280;32811;52.382;5.270;2023-02-18T06:21:28;101728.69;;;9.00;100.00
47054;BME280;32811;52.382;5.270;2023-02-18T06:23:55;101766.00;;;9.16;100.00
47054;BME280;32811;52.382;5.270;2023-02-18T06:26:21;101764.28;;;9.17;100.00
47054;BME280;32811;52.382;5.270;2023-02-18T06:28:48;101747.09;;;9.16;100.00
47054;BME280;32811;52.382;5.270;2023-02-18T06:31:15;101746.25;;;9.17;100.00
47054;BME280;32811;52.382;5.270;2023-02-18T06:33:42;101744.41;;;9.11;100.00
47054;BME280;32811;52.382;5.270;2023-02-18T06:36:10;101752.44;;;9.23;100.00
47054;BME280;32811;52.382;5.270;2023-02-18T06:38:39;101735.13;;;9.18;100.00
47054;BME280;32811;52.382;5.270;2023-02-18T06:41:07;101743.63;;;9.13;100.00
47054;BME280;32811;52.382;5.270;2023-02-18T06:43:34;101741.06;;;9.15;100.00
47054;BME280;32811;52.382;5.270;2023-02-18T06:46:01;101723.81;;;9.11;100.00
47054;BME280;32811;52.382;5.270;2023-02-18T06:48:27;101725.72;;;9.20;100.00
47054;BME280;32811;52.382;5.270;2023-02-18T06:50:54;101707.47;;;9.10;100.00
47054;BME280;32811;52.382;5.270;2023-02-18T06:53:21;101696.09;;;9.01;100.00
47054;BME280;32811;52.382;5.270;2023-02-18T06:55:47;101717.09;;;9.18;100.00
47054;BME280;32811;52.382;5.270;2023-02-18T06:58:15;101698.06;;;9.11;100.00
47054;BME280;32811;52.382;5.270;2023-02-18T07:00:43;101698.94;;;9.13;100.00
47054;BME280;32811;52.382;5.270;2023-02-18T07:03:12;101713.72;;;9.20;100.00
47054;BME280;32811;52.382;5.270;2023-02-18T07:05:39;101713.75;;;9.22;100.00
47054;BME280;32811;52.382;5.270;2023-02-18T07:08:16;101670.19;;;8.94;100.00
47054;BME280;32811;52.382;5.270;2023-02-18T07:10:44;101687.50;;;9.02;100.00
47054;BME280;32811;52.382;5.270;2023-02-18T07:13:13;101720.59;;;9.21;100.00
47054;BME280;32811;52.382;5.270;2023-02-18T07:15:56;101679.56;;;8.91;100.00
47054;BME280;32811;52.382;5.270;2023-02-18T07:18:28;101661.47;;;8.89;100.00
47054;BME280;32811;52.382;5.270;2023-02-18T07:20:57;101695.50;;;9.12;100.00
47054;BME280;32811;52.382;5.270;2023-02-18T07:23:25;101677.16;;;8.99;100.00
47054;BME280;32811;52.382;5.270;2023-02-18T07:26:06;101657.19;;;8.90;100.00
47054;BME280;32811;52.382;5.270;2023-02-18T07:28:36;101696.16;;;9.04;100.00
47054;BME280;32811;52.382;5.270;2023-02-18T07:31:07;101699.34;;;8.95;100.00
47054;BME280;32811;52.382;5.270;2023-02-18T07:33:52;101716.63;;;8.98;100.00
47054;BME280;32811;52.382;5.270;2023-02-18T07:36:23;101677.28;;;8.70;100.00
47054;BME280;32811;52.382;5.270;2023-02-18T07:38:50;101728.47;;;8.92;100.00
47054;BME280;32811;52.382;5.270;2023-02-18T07:41:21;101699.78;;;8.77;100.00
47054;BME280;32811;52.382;5.270;2023-02-18T07:43:48;101718.06;;;8.86;100.00
47054;BME280;32811;52.382;5.270;2023-02-18T07:46:22;101729.09;;;8.82;100.00
47054;BME280;32811;52.382;5.270;2023-02-18T07:48:52;101731.63;;;8.81;100.00
47054;BME280;32811;52.382;5.270;2023-02-18T07:51:20;101719.59;;;8.80;100.00
47054;BME280;32811;52.382;5.270;2023-02-18T07:53:50;101727.44;;;8.84;100.00
47054;BME280;32811;52.382;5.270;2023-02-18T07:56:17;101733.56;;;8.89;100.00
47054;BME280;32811;52.382;5.270;2023-02-18T07:58:44;101716.13;;;8.79;100.00
47054;BME280;32811;52.382;5.270;2023-02-18T08:01:13;101724.81;;;8.83;100.00
47054;BME280;32811;52.382;5.270;2023-02-18T08:03:42;101706.56;;;8.75;100.00
47054;BME280;32811;52.382;5.270;2023-02-18T08:06:27;101722.50;;;8.93;100.00
47054;BME280;32811;52.382;5.270;2023-02-18T08:08:54;101731.91;;;8.91;100.00
47054;BME280;32811;52.382;5.270;2023-02-18T08:11:21;101733.41;;;8.83;100.00
47054;BME280;32811;52.382;5.270;2023-02-18T08:13:48;101732.47;;;8.80;100.00
47054;BME280;32811;52.382;5.270;2023-02-18T08:16:19;101741.88;;;8.79;100.00
47054;BME280;32811;52.382;5.270;2023-02-18T08:18:46;101724.47;;;8.69;100.00
47054;BME280;32811;52.382;5.270;2023-02-18T08:21:15;101728.47;;;8.59;100.00
47054;BME280;32811;52.382;5.270;2023-02-18T08:23:42;101741.31;;;8.58;100.00
47054;BME280;32811;52.382;5.270;2023-02-18T08:26:09;101743.03;;;8.59;100.00
47054;BME280;32811;52.382;5.270;2023-02-18T08:28:37;101736.06;;;8.53;100.00
47054;BME280;32811;52.382;5.270;2023-02-18T08:31:04;101732.44;;;8.46;100.00
47054;BME280;32811;52.382;5.270;2023-02-18T08:33:32;101729.03;;;8.47;100.00
47054;BME280;32811;52.382;5.270;2023-02-18T08:35:58;101736.75;;;8.47;100.00
47054;BME280;32811;52.382;5.270;2023-02-18T08:38:25;101731.59;;;8.47;100.00
47054;BME280;32811;52.382;5.270;2023-02-18T08:41:00;101734.91;;;8.43;100.00
47054;BME280;32811;52.382;5.270;2023-02-18T08:43:27;101728.06;;;8.44;100.00
47054;BME280;32811;52.382;5.270;2023-02-18T08:45:56;101718.66;;;8.44;100.00
47054;BME280;32811;52.382;5.270;2023-02-18T08:48:24;101728.22;;;8.48;100.00
47054;BME280;32811;52.382;5.270;2023-02-18T08:50:51;101717.00;;;8.46;100.00
47054;BME280;32811;52.382;5.270;2023-02-18T08:53:18;101722.47;;;8.59;100.00
47054;BME280;32811;52.382;5.270;2023-02-18T08:55:47;101720.69;;;8.56;100.00
47054;BME280;32811;52.382;5.270;2023-02-18T08:58:13;101724.41;;;8.67;100.00
47054;BME280;32811;52.382;5.270;2023-02-18T09:00:41;101722.88;;;8.74;100.00
47054;BME280;32811;52.382;5.270;2023-02-18T09:03:12;101711.66;;;8.72;100.00
47054;BME280;32811;52.382;5.270;2023-02-18T09:05:39;101737.41;;;8.72;100.00
47054;BME280;32811;52.382;5.270;2023-02-18T09:08:06;101717.44;;;8.63;100.00
47054;BME280;32811;52.382;5.270;2023-02-18T09:10:33;101740.94;;;8.77;100.00
47054;BME280;32811;52.382;5.270;2023-02-18T09:13:00;101744.44;;;8.78;100.00
47054;BME280;32811;52.382;5.270;2023-02-18T09:15:26;101746.91;;;8.75;100.00
47054;BME280;32811;52.382;5.270;2023-02-18T09:17:53;101745.97;;;8.72;100.00
47054;BME280;32811;52.382;5.270;2023-02-18T09:20:19;101743.53;;;8.77;100.00
47054;BME280;32811;52.382;5.270;2023-02-18T09:22:46;101730.53;;;8.72;100.00
47054;BME280;32811;52.382;5.270;2023-02-18T09:25:13;101740.03;;;8.75;100.00
47054;BME280;32811;52.382;5.270;2023-02-18T09:27:39;101748.84;;;8.83;100.00
47054;BME280;32811;52.382;5.270;2023-02-18T09:30:06;101747.94;;;8.81;100.00
47054;BME280;32811;52.382;5.270;2023-02-18T09:32:33;101726.25;;;8.71;100.00
47054;BME280;32811;52.382;5.270;2023-02-18T09:35:02;101740.38;;;8.87;100.00
47054;BME280;32811;52.382;5.270;2023-02-18T09:37:29;101752.41;;;8.88;100.00
47054;BME280;32811;52.382;5.270;2023-02-18T09:39:55;101737.81;;;8.87;100.00
47054;BME280;32811;52.382;5.270;2023-02-18T09:42:29;101756.06;;;8.97;100.00
47054;BME280;32811;52.382;5.270;2023-02-18T09:45:03;101758.03;;;9.07;100.00
47054;BME280;32811;52.382;5.270;2023-02-18T09:49:59;101756.81;;;8.92;100.00
47054;BME280;32811;52.382;5.270;2023-02-18T09:52:32;101755.81;;;8.87;100.00
47054;BME280;32811;52.382;5.270;2023-02-18T09:55:00;101755.25;;;8.98;100.00
47054;BME280;32811;52.382;5.270;2023-02-18T09:57:47;101763.22;;;9.08;100.00
47054;BME280;32811;52.382;5.270;2023-02-18T10:00:16;101764.06;;;9.07;100.00
47054;BME280;32811;52.382;5.270;2023-02-18T10:02:53;101765.13;;;9.16;100.00
47054;BME280;32811;52.382;5.270;2023-02-18T10:05:21;101757.81;;;9.32;100.00
47054;BME280;32811;52.382;5.270;2023-02-18T10:07:50;101769.06;;;9.36;100.00
47054;BME280;32811;52.382;5.270;2023-02-18T10:10:39;101760.53;;;9.39;100.00
47054;BME280;32811;52.382;5.270;2023-02-18T10:13:19;101755.38;;;9.39;100.00
47054;BME280;32811;52.382;5.270;2023-02-18T10:15:47;101762.34;;;9.43;100.00
47054;BME280;32811;52.382;5.270;2023-02-18T10:18:33;101761.06;;;9.60;100.00
47054;BME280;32811;52.382;5.270;2023-02-18T10:21:11;101760.59;;;9.78;100.00
47054;BME280;32811;52.382;5.270;2023-02-18T10:23:52;101759.66;;;9.74;100.00
47054;BME280;32811;52.382;5.270;2023-02-18T10:26:20;101737.97;;;9.66;100.00
47054;BME280;32811;52.382;5.270;2023-02-18T10:28:47;101771.16;;;9.90;100.00
47054;BME280;32811;52.382;5.270;2023-02-18T10:31:33;101772.13;;;9.95;100.00
47054;BME280;32811;52.382;5.270;2023-02-18T10:34:06;101775.72;;;10.01;100.00
47054;BME280;32811;52.382;5.270;2023-02-18T10:36:48;101767.84;;;9.94;100.00
47054;BME280;32811;52.382;5.270;2023-02-18T10:45:08;101778.16;;;9.94;100.00
47054;BME280;32811;52.382;5.270;2023-02-18T10:50:43;101780.53;;;10.26;100.00
47054;BME280;32811;52.382;5.270;2023-02-18T10:53:15;101784.09;;;10.31;100.00
47054;BME280;32811;52.382;5.270;2023-02-18T10:55:46;101777.31;;;10.35;100.00
47054;BME280;32811;52.382;5.270;2023-02-18T10:58:41;101784.38;;;10.44;100.00
47054;BME280;32811;52.382;5.270;2023-02-18T11:01:18;101792.47;;;10.62;100.00
47054;BME280;32811;52.382;5.270;2023-02-18T11:03:48;101795.81;;;10.58;100.00
47054;BME280;32811;52.382;5.270;2023-02-18T11:08:56;101788.09;;;10.58;100.00
47054;BME280;32811;52.382;5.270;2023-02-18T11:11:28;101748.97;;;10.36;100.00
47054;BME280;32811;52.382;5.270;2023-02-18T11:13:59;101787.81;;;10.44;100.00
47054;BME280;32811;52.382;5.270;2023-02-18T11:16:42;101779.91;;;10.35;100.00
47054;BME280;32811;52.382;5.270;2023-02-18T11:19:35;101785.19;;;10.41;100.00
47054;BME280;32811;52.382;5.270;2023-02-18T11:22:13;101780.66;;;10.29;100.00
47054;BME280;32811;52.382;5.270;2023-02-18T11:24:41;101800.59;;;10.38;100.00
47054;BME280;32811;52.382;5.270;2023-02-18T11:27:22;101809.91;;;10.31;100.00
47054;BME280;32811;52.382;5.270;2023-02-18T11:29:51;101795.03;;;10.19;100.00
47054;BME280;32811;52.382;5.270;2023-02-18T11:32:26;101787.31;;;10.21;100.00
47054;BME280;32811;52.382;5.270;2023-02-18T11:34:53;101800.34;;;10.27;100.00
47054;BME280;32811;52.382;5.270;2023-02-18T11:37:20;101795.09;;;10.23;100.00
47054;BME280;32811;52.382;5.270;2023-02-18T11:39:50;101797.88;;;10.30;100.00
47054;BME280;32811;52.382;5.270;2023-02-18T11:42:20;101812.53;;;10.33;100.00
47054;BME280;32811;52.382;5.270;2023-02-18T11:44:58;101792.22;;;10.48;100.00
47054;BME280;32811;52.382;5.270;2023-02-18T11:47:30;101796.81;;;10.65;100.00
47054;BME280;32811;52.382;5.270;2023-02-18T11:52:51;101800.59;;;10.82;100.00
47054;BME280;32811;52.382;5.270;2023-02-18T11:55:22;101799.09;;;10.93;100.00
47054;BME280;32811;52.382;5.270;2023-02-18T11:57:59;101800.84;;;10.96;100.00
47054;BME280;32811;52.382;5.270;2023-02-18T12:00:45;101801.84;;;11.02;100.00
47054;BME280;32811;52.382;5.270;2023-02-18T12:03:32;101800.31;;;11.14;100.00
47054;BME280;32811;52.382;5.270;2023-02-18T12:06:11;101794.97;;;11.05;100.00
47054;BME280;32811;52.382;5.270;2023-02-18T12:08:48;101779.28;;;10.94;100.00
47054;BME280;32811;52.382;5.270;2023-02-18T12:11:25;101787.97;;;10.97;100.00
47054;BME280;32811;52.382;5.270;2023-02-18T12:13:56;101804.34;;;10.98;100.00
47054;BME280;32811;52.382;5.270;2023-02-18T12:16:38;101797.38;;;10.94;100.00
47054;BME280;32811;52.382;5.270;2023-02-18T12:27:58;101795.06;;;11.09;100.00
47054;BME280;32811;52.382;5.270;2023-02-18T12:38:52;101805.44;;;11.11;100.00
47054;BME280;32811;52.382;5.270;2023-02-18T12:58:10;101813.56;;;11.34;100.00
47054;BME280;32811;52.382;5.270;2023-02-18T13:00:37;101816.16;;;11.32;100.00
47054;BME280;32811;52.382;5.270;2023-02-18T13:06:27;101819.38;;;11.19;100.00
47054;BME280;32811;52.382;5.270;2023-02-18T13:09:11;101816.56;;;11.07;100.00
47054;BME280;32811;52.382;5.270;2023-02-18T13:14:30;101814.66;;;10.96;100.00
47054;BME280;32811;52.382;5.270;2023-02-18T13:17:00;101833.91;;;11.12;100.00
47054;BME280;32811;52.382;5.270;2023-02-18T13:19:32;101826.16;;;11.14;100.00
47054;BME280;32811;52.382;5.270;2023-02-18T13:22:05;101833.16;;;11.19;100.00
47054;BME280;32811;52.382;5.270;2023-02-18T13:24:37;101820.91;;;11.08;100.00
47054;BME280;32811;52.382;5.270;2023-02-18T13:27:19;101834.72;;;11.11;100.00
47054;BME280;32811;52.382;5.270;2023-02-18T13:32:25;101840.09;;;11.22;100.00
47054;BME280;32811;52.382;5.270;2023-02-18T13:35:04;101797.28;;;10.89;100.00
47054;BME280;32811;52.382;5.270;2023-02-18T13:40:17;101829.50;;;11.08;100.00
47054;BME280;32811;52.382;5.270;2023-02-18T13:42:45;101820.91;;;11.09;100.00
47054;BME280;32811;52.382;5.270;2023-02-18T13:45:31;101830.41;;;11.10;100.00
47054;BME280;32811;52.382;5.270;2023-02-18T13:47:59;101834.78;;;11.14;100.00
47054;BME280;32811;52.382;5.270;2023-02-18T13:50:30;101821.81;;;11.11;100.00
47054;BME280;32811;52.382;5.270;2023-02-18T13:56:06;101831.44;;;11.20;100.00
47054;BME280;32811;52.382;5.270;2023-02-18T13:58:41;101834.91;;;11.22;100.00
47054;BME280;32811;52.382;5.270;2023-02-18T14:01:13;101827.22;;;11.25;100.00
47054;BME280;32811;52.382;5.270;2023-02-18T14:06:24;101833.34;;;11.32;100.00
47054;BME280;32811;52.382;5.270;2023-02-18T14:09:02;101822.03;;;11.25;100.00
47054;BME280;32811;52.382;5.270;2023-02-18T14:11:39;101823.66;;;11.18;100.00
47054;BME280;32811;52.382;5.270;2023-02-18T14:14:30;101839.25;;;11.25;100.00
47054;BME280;32811;52.382;5.270;2023-02-18T14:17:27;101821.81;;;11.11;100.00
47054;BME280;32811;52.382;5.270;2023-02-18T14:27:39;101817.88;;;10.85;100.00
47054;BME280;32811;52.382;5.270;2023-02-18T14:30:16;101815.19;;;10.80;100.00
47054;BME280;32811;52.382;5.270;2023-02-18T14:32:45;101836.06;;;10.91;100.00
47054;BME280;32811;52.382;5.270;2023-02-18T14:49:11;101838.44;;;10.80;100.00
47054;BME280;32811;52.382;5.270;2023-02-18T14:51:43;101844.38;;;10.76;100.00
47054;BME280;32811;52.382;5.270;2023-02-18T14:54:17;101835.00;;;10.79;100.00
47054;BME280;32811;52.382;5.270;2023-02-18T14:56:53;101848.63;;;10.72;100.00
47054;BME280;32811;52.382;5.270;2023-02-18T14:59:22;101809.53;;;10.54;100.00
47054;BME280;32811;52.382;5.270;2023-02-18T15:01:54;101826.81;;;10.56;100.00
47054;BME280;32811;52.382;5.270;2023-02-18T15:04:24;101837.31;;;10.66;100.00
47054;BME280;32811;52.382;5.270;2023-02-18T15:07:04;101845.19;;;10.73;100.00
47054;BME280;32811;52.382;5.270;2023-02-18T15:09:44;101845.88;;;10.63;100.00
47054;BME280;32811;52.382;5.270;2023-02-18T15:12:15;101858.88;;;10.68;100.00
47054;BME280;32811;52.382;5.270;2023-02-18T15:14:44;101861.50;;;10.71;100.00
47054;BME280;32811;52.382;5.270;2023-02-18T15:17:23;101851.94;;;10.67;100.00
47054;BME280;32811;52.382;5.270;2023-02-18T15:19:58;101848.31;;;10.57;100.00
47054;BME280;32811;52.382;5.270;2023-02-18T15:22:30;101849.19;;;10.57;100.00
47054;BME280;32811;52.382;5.270;2023-02-18T15:24:57;101847.31;;;10.50;100.00
47054;BME280;32811;52.382;5.270;2023-02-18T15:27:26;101854.06;;;10.44;100.00
47054;BME280;32811;52.382;5.270;2023-02-18T15:32:55;101853.78;;;10.31;100.00
47054;BME280;32811;52.382;5.270;2023-02-18T15:35:25;101867.78;;;10.41;100.00
47054;BME280;32811;52.382;5.270;2023-02-18T15:37:56;101865.16;;;10.39;100.00